Terminal Aerodrome Forecast
Issued by NWS Amarillo, TX

Home | Current Version | Previous Version | Text Only | Print | Product List | Glossary On
Versions: 1 2 3 4 5 6 7 8 9 10 11 12 13 14 15
000
FTUS44 KAMA 020500
TAFDHT
TAF
KDHT 020520Z 0206/0306 02008KT P6SM VCTS BKN090CB OVC250
      TEMPO 0206/0209 VRB20G30KT 5SM TSRA
     FM020900 34010KT P6SM BKN100 OVC200
     FM021800 17010G20KT P6SM SCT090 BKN250
     FM022200 14010G20KT P6SM VCSH SCT100 BKN250=

USA.gov is the U.S. government's official web portal to all federal, state and local government web resources and services.